createdAt,value
2022-11-27T00:04:04.339Z,69.96782
2022-11-27T00:09:06.121Z,69.42906
2022-11-27T00:14:07.934Z,69.17742
2022-11-27T00:19:09.703Z,70.09374
2022-11-27T00:24:11.529Z,70.20467
2022-11-27T00:29:13.240Z,69.34773
2022-11-27T00:34:15.016Z,69.83243
2022-11-27T00:39:16.884Z,68.7212
2022-11-27T00:44:18.703Z,68.80666
2022-11-27T00:49:20.360Z,70.07556
2022-11-27T00:54:22.957Z,69.07705
2022-11-27T00:59:24.728Z,70.40196
2022-11-27T01:04:26.487Z,69.60943
2022-11-27T01:09:28.204Z,70.106
2022-11-27T01:14:30.081Z,68.82162
2022-11-27T01:19:32.009Z,69.91654
2022-11-27T01:24:33.776Z,69.94778
2022-11-27T01:29:35.623Z,69.81462
2022-11-27T01:34:37.440Z,69.75211
2022-11-27T01:39:39.233Z,68.28226
2022-11-27T01:44:41.421Z,68.12189
2022-11-27T01:49:43.431Z,68.98338
2022-11-27T01:54:45.117Z,69.69068
2022-11-27T01:59:46.842Z,69.1245
2022-11-27T02:04:48.682Z,69.43921
2022-11-27T02:09:50.321Z,68.32064
2022-11-27T02:14:52.046Z,68.57903
2022-11-27T02:19:53.862Z,69.43883
2022-11-27T02:24:55.523Z,69.47731
2022-11-27T02:29:57.204Z,69.08349
2022-11-27T02:34:58.819Z,68.34031
2022-11-27T02:40:00.435Z,67.98544
2022-11-27T02:45:02.179Z,68.85767
2022-11-27T02:50:03.783Z,68.57073
2022-11-27T02:55:05.448Z,67.88633
2022-11-27T03:00:07.138Z,69.42596
2022-11-27T03:05:08.832Z,70.04796
2022-11-27T03:10:10.749Z,69.10212
2022-11-27T03:15:12.577Z,67.97105
2022-11-27T03:20:14.313Z,66.90887
2022-11-27T03:25:16.165Z,66.72222
2022-11-27T03:30:17.968Z,64.87328
2022-11-27T03:35:19.666Z,63.38279
2022-11-27T03:40:21.425Z,61.77119
2022-11-27T03:45:23.378Z,65.41939
2022-11-27T03:50:25.164Z,65.96509
2022-11-27T03:55:26.987Z,67.38754
2022-11-27T04:00:28.939Z,69.04091
2022-11-27T04:05:30.694Z,67.20552
2022-11-27T04:10:32.461Z,69.26066
2022-11-27T04:15:34.171Z,68.09883
2022-11-27T04:20:35.917Z,67.50692
2022-11-27T04:25:37.567Z,65.51702
2022-11-27T04:30:39.236Z,65.67227
2022-11-27T04:35:40.885Z,66.48285
2022-11-27T04:40:42.738Z,68.08985
2022-11-27T04:45:44.393Z,69.18877
2022-11-27T04:50:46.035Z,69.47864
2022-11-27T04:55:47.700Z,70.39073
2022-11-27T05:00:49.536Z,70.31973
2022-11-27T05:05:51.210Z,69.71526
2022-11-27T05:10:53.005Z,67.54359
2022-11-27T05:15:54.935Z,68.3534
2022-11-27T05:20:56.814Z,70.25838
2022-11-27T05:25:58.532Z,70.51783
2022-11-27T05:31:00.308Z,70.49968
2022-11-27T05:36:02.128Z,71.28799
2022-11-27T05:41:03.941Z,70.18183
2022-11-27T05:46:05.749Z,69.91146
2022-11-27T05:51:07.436Z,69.8155
2022-11-27T05:56:09.506Z,69.99326
2022-11-27T06:01:11.285Z,68.65635
2022-11-27T06:06:13.140Z,66.57898
2022-11-27T06:11:14.962Z,65.69815
2022-11-27T06:16:16.838Z,67.97704
2022-11-27T06:21:18.623Z,68.24866
2022-11-27T06:26:20.287Z,67.2663
2022-11-27T06:31:22.056Z,66.82134
2022-11-27T06:36:23.888Z,63.64248
2022-11-27T06:41:25.692Z,66.75262
2022-11-27T06:46:27.384Z,67.72315
2022-11-27T06:51:29.801Z,64.83134
2022-11-27T06:56:31.467Z,62.48873
2022-11-27T07:01:33.274Z,63.28314
2022-11-27T07:06:35.001Z,63.35064
2022-11-27T07:11:36.765Z,62.2396
2022-11-27T07:16:38.520Z,63.68768
2022-11-27T07:21:40.324Z,64.99059
2022-11-27T07:26:42.089Z,64.57676
2022-11-27T07:31:44.115Z,67.48519
2022-11-27T07:36:46.094Z,65.76274
2022-11-27T07:41:47.859Z,67.85897
2022-11-27T07:46:49.523Z,65.47358
2022-11-27T07:51:51.203Z,67.14774
2022-11-27T07:56:52.856Z,63.76549
2022-11-27T08:01:54.590Z,63.3875
2022-11-27T08:06:56.418Z,64.96765
2022-11-27T08:11:58.016Z,64.78022
2022-11-27T08:16:59.824Z,66.2107
2022-11-27T08:22:01.596Z,65.27437
2022-11-27T08:27:03.475Z,68.00524
2022-11-27T08:32:05.341Z,67.72737
2022-11-27T08:37:07.288Z,70.27358
2022-11-27T08:42:08.975Z,67.09941
2022-11-27T08:47:10.672Z,62.99666
2022-11-27T08:52:12.327Z,62.57009
2022-11-27T08:57:14.032Z,61.41682
2022-11-27T09:02:15.657Z,62.89878
2022-11-27T09:07:17.400Z,64.66035
2022-11-27T09:12:19.121Z,63.60079
2022-11-27T09:17:21.029Z,64.77205
2022-11-27T09:22:22.840Z,70.85999
2022-11-27T09:27:24.484Z,68.35913
2022-11-27T09:32:26.221Z,65.80786
2022-11-27T09:37:27.875Z,64.53456
2022-11-27T09:42:29.488Z,63.35849
2022-11-27T09:47:31.161Z,64.4908
2022-11-27T09:52:32.841Z,65.53379
2022-11-27T09:57:34.852Z,67.67671
2022-11-27T10:02:36.817Z,66.64871
2022-11-27T10:07:38.936Z,68.20873
2022-11-27T10:12:40.711Z,68.12494
2022-11-27T10:17:42.457Z,67.95186
2022-11-27T10:22:44.183Z,65.70681
2022-11-27T10:27:46.166Z,64.36504
2022-11-27T10:32:55.168Z,65.32007
2022-11-27T10:38:02.165Z,64.69375
2022-11-27T10:43:07.197Z,63.8142
2022-11-27T10:48:08.906Z,63.0233
2022-11-27T10:53:10.623Z,64.24129
2022-11-27T10:58:12.351Z,65.1631
2022-11-27T11:03:14.095Z,66.21391
2022-11-27T11:08:15.875Z,64.64407
2022-11-27T11:13:17.619Z,67.76001
2022-11-27T11:18:19.430Z,64.87914
2022-11-27T11:23:21.264Z,64.80146
2022-11-27T11:28:23.051Z,63.97833
2022-11-27T11:33:24.813Z,65.34237
2022-11-27T11:38:26.586Z,66.34479
2022-11-27T11:43:32.874Z,65.66984
2022-11-27T11:48:34.610Z,66.24317
2022-11-27T11:53:36.432Z,64.80764
2022-11-27T11:58:38.178Z,65.76454
2022-11-27T12:03:40.055Z,68.0432
2022-11-27T12:08:41.872Z,70.17906
2022-11-27T12:13:43.686Z,69.21478
2022-11-27T12:18:45.614Z,68.4434
2022-11-27T12:23:47.348Z,66.62942
2022-11-27T12:28:52.074Z,65.02404
2022-11-27T12:33:56.365Z,65.08659
2022-11-27T12:38:58.212Z,65.26821
2022-11-27T12:43:59.964Z,63.93504
2022-11-27T12:49:01.656Z,69.37729
2022-11-27T12:54:03.521Z,69.67993
2022-11-27T12:59:05.406Z,69.32401
2022-11-27T13:04:07.070Z,66.50255
2022-11-27T13:09:08.845Z,66.9187
2022-11-27T13:14:10.907Z,68.86485
2022-11-27T13:19:12.682Z,67.95195
2022-11-27T13:24:14.364Z,68.46973
2022-11-27T13:29:16.273Z,67.13277
2022-11-27T13:34:17.946Z,68.89875
2022-11-27T13:39:19.611Z,68.27644
2022-11-27T13:44:21.587Z,67.34738
2022-11-27T13:49:23.237Z,68.72235
2022-11-27T13:54:28.906Z,75.79094
2022-11-27T13:59:35.094Z,70.76188
2022-11-27T14:04:40.070Z,71.00013
2022-11-27T14:09:41.985Z,71.25018
2022-11-27T14:14:43.937Z,70.83277
2022-11-27T14:19:45.660Z,70.04245
2022-11-27T14:24:47.313Z,70.58662
2022-11-27T14:29:49.277Z,74.01639
2022-11-27T14:34:51.075Z,70.55272
2022-11-27T14:39:53.144Z,71.68831
2022-11-27T14:44:54.930Z,71.6543
2022-11-27T14:49:56.686Z,74.60436
2022-11-27T14:54:58.360Z,75.82664
2022-11-27T15:00:00.171Z,72.49529
2022-11-27T15:05:01.918Z,73.34997
2022-11-27T15:10:03.686Z,74.56538
2022-11-27T15:15:05.464Z,74.49523
2022-11-27T15:20:07.374Z,75.35994
2022-11-27T15:25:09.110Z,79.05334
2022-11-27T15:30:11.059Z,79.93219
2022-11-27T15:35:12.948Z,74.4703
2022-11-27T15:40:15.079Z,82.87483
2022-11-27T15:45:16.944Z,79.38183
2022-11-27T15:50:18.659Z,75.36747
2022-11-27T15:55:20.396Z,74.03306
2022-11-27T16:00:22.216Z,73.49671
2022-11-27T16:05:24.141Z,76.0078
2022-11-27T16:10:25.856Z,76.93449
2022-11-27T16:15:32.759Z,74.29736
2022-11-27T16:20:35.003Z,76.62713
2022-11-27T16:25:36.712Z,75.73427
2022-11-27T16:30:38.699Z,72.87268
2022-11-27T16:35:40.516Z,60.8332
2022-11-27T16:40:42.278Z,71.19308
2022-11-27T16:45:44.281Z,70.36065
2022-11-27T16:50:46.123Z,70.75944
2022-11-27T16:55:47.853Z,66.83431
2022-11-27T17:00:50.145Z,60.66343
2022-11-27T17:05:52.013Z,60.49763
2022-11-27T17:10:53.771Z,63.05288
2022-11-27T17:15:55.964Z,61.20809
2022-11-27T17:20:57.840Z,48.83512
2022-11-27T17:25:59.653Z,51.05246
2022-11-27T17:31:01.462Z,47.13774
2022-11-27T17:36:03.238Z,46.54261
2022-11-27T17:41:05.000Z,44.27833
2022-11-27T17:46:06.704Z,46.45397
2022-11-27T17:51:08.520Z,43.88879
2022-11-27T17:56:10.135Z,45.44565
2022-11-27T18:01:11.802Z,43.28124
2022-11-27T18:06:13.484Z,43.21155
2022-11-27T18:11:15.144Z,44.57814
2022-11-27T18:16:16.919Z,44.08142
2022-11-27T18:21:18.958Z,44.9379
2022-11-27T18:26:30.121Z,44.66125
2022-11-27T18:31:41.437Z,45.04536
2022-11-27T18:36:43.172Z,42.95487
2022-11-27T18:41:44.812Z,41.14309
2022-11-27T18:46:46.447Z,41.8253
2022-11-27T18:51:48.115Z,40.89596
2022-11-27T18:56:49.782Z,39.42441
2022-11-27T19:01:51.690Z,42.3957
2022-11-27T19:06:53.434Z,38.99869
2022-11-27T19:11:55.183Z,36.52246
2022-11-27T19:16:56.816Z,38.10277
2022-11-27T19:21:58.544Z,37.56518
2022-11-27T19:27:00.154Z,36.94373
2022-11-27T19:32:01.972Z,38.80194
2022-11-27T19:37:03.825Z,35.45217
2022-11-27T19:42:05.576Z,35.94834
2022-11-27T19:47:07.305Z,35.37415
2022-11-27T19:52:08.909Z,33.69776
2022-11-27T19:57:10.666Z,33.42423
2022-11-27T20:02:12.661Z,34.11327
2022-11-27T20:07:14.365Z,32.90175
2022-11-27T20:12:16.031Z,34.19747
2022-11-27T20:17:17.636Z,30.07014
2022-11-27T20:22:19.279Z,33.84692
2022-11-27T20:27:20.886Z,28.90396
2022-11-27T20:32:22.534Z,32.95916
2022-11-27T20:37:24.234Z,33.11361
2022-11-27T20:42:25.862Z,31.30375
2022-11-27T20:47:27.551Z,33.29665
2022-11-27T20:52:29.176Z,35.87065
2022-11-27T20:57:30.832Z,36.36426
2022-11-27T21:02:32.604Z,35.13367
2022-11-27T21:07:34.512Z,35.84624
2022-11-27T21:12:36.275Z,31.86082
2022-11-27T21:17:37.928Z,36.61354
2022-11-27T21:22:39.541Z,38.08898
2022-11-27T21:27:41.183Z,38.79827
2022-11-27T21:32:42.877Z,36.23906
2022-11-27T21:37:44.525Z,35.28014
2022-11-27T21:42:46.196Z,40.81069
2022-11-27T21:47:48.015Z,42.40153
2022-11-27T21:52:49.835Z,43.85091
2022-11-27T21:57:51.491Z,35.65673
2022-11-27T22:02:53.203Z,33.64198
2022-11-27T22:07:55.270Z,34.37716
2022-11-27T22:12:57.002Z,31.75448
2022-11-27T22:17:58.623Z,36.89856
2022-11-27T22:23:00.382Z,36.43784
2022-11-27T22:28:01.991Z,43.21145
2022-11-27T22:33:03.613Z,39.99986
2022-11-27T22:38:05.206Z,38.56188
2022-11-27T22:43:06.827Z,39.06548
2022-11-27T22:48:08.502Z,40.45167
2022-11-27T22:53:10.117Z,42.0414
2022-11-27T22:58:11.799Z,46.42343
2022-11-27T23:03:13.419Z,46.829
2022-11-27T23:08:15.293Z,44.53069
2022-11-27T23:13:17.006Z,46.27581
2022-11-27T23:18:18.638Z,47.24636
2022-11-27T23:23:20.393Z,48.55546
2022-11-27T23:28:22.018Z,49.14752
2022-11-27T23:33:23.696Z,55.24502
2022-11-27T23:38:25.300Z,56.2965
2022-11-27T23:43:26.965Z,56.10955
2022-11-27T23:48:28.665Z,54.4665
2022-11-27T23:53:30.440Z,54.42479
2022-11-27T23:58:32.112Z,44.20435
